Connor, Texas
Current Conditions -  °F | °C
As of 10:53 AM on Friday 24 Oct 2014 (Local Time) from KUTS Reporting Station
Clear Clear  
Wind Chill: 20°   Ceiling: Unl
Heat Index: 20°   Visibility: 10mi
Dew Point: 10°   Wind: 0mph
Humidity: 52%   Direction: NA
Pressure: 30.19"   Gusts: NA
Location:  30.9578°N, 95.8924°W
Report Text: KUTS 241553Z AUTO 00000KT 10SM CLR 20/10 A3019 RMK AO2 SLP220 T02000100
Loading
Personal Weather Stations






























Interactive Weather Map
Tropical Storm Tracking
New forecast layout! Learn more

10-Day Weather Forecast

Advertisements
Track Severe Weather on mobile